sensor_id;sensor_type;location;lat;lon;timestamp;P1;durP1;ratioP1;P2;durP2;ratioP2
65150;SDS011;51918;51.856;0.150;2023-04-01T00:02:48;10.23;;;5.50;;
65150;SDS011;51918;51.856;0.150;2023-04-01T00:07:49;10.00;;;4.50;;
65150;SDS011;51918;51.856;0.150;2023-04-01T00:12:50;8.18;;;4.30;;
65150;SDS011;51918;51.856;0.150;2023-04-01T00:17:52;9.32;;;4.35;;
65150;SDS011;51918;51.856;0.150;2023-04-01T00:22:53;8.38;;;4.07;;
65150;SDS011;51918;51.856;0.150;2023-04-01T00:27:53;9.65;;;4.80;;
65150;SDS011;51918;51.856;0.150;2023-04-01T00:32:55;9.00;;;4.95;;
65150;SDS011;51918;51.856;0.150;2023-04-01T00:37:56;9.77;;;4.63;;
65150;SDS011;51918;51.856;0.150;2023-04-01T00:42:57;8.93;;;4.35;;
65150;SDS011;51918;51.856;0.150;2023-04-01T00:48:00;9.05;;;4.13;;
65150;SDS011;51918;51.856;0.150;2023-04-01T00:53:04;7.68;;;3.90;;
65150;SDS011;51918;51.856;0.150;2023-04-01T00:58:07;5.25;;;3.40;;
65150;SDS011;51918;51.856;0.150;2023-04-01T01:03:12;7.53;;;3.30;;
65150;SDS011;51918;51.856;0.150;2023-04-01T01:08:14;6.40;;;3.35;;
65150;SDS011;51918;51.856;0.150;2023-04-01T01:13:22;8.95;;;3.85;;
65150;SDS011;51918;51.856;0.150;2023-04-01T01:18:33;5.85;;;3.17;;
65150;SDS011;51918;51.856;0.150;2023-04-01T01:29:16;6.30;;;3.38;;
65150;SDS011;51918;51.856;0.150;2023-04-01T01:34:35;7.10;;;3.75;;
65150;SDS011;51918;51.856;0.150;2023-04-01T01:39:42;7.65;;;3.72;;
65150;SDS011;51918;51.856;0.150;2023-04-01T01:44:46;8.63;;;3.60;;
65150;SDS011;51918;51.856;0.150;2023-04-01T01:49:50;6.40;;;2.83;;
65150;SDS011;51918;51.856;0.150;2023-04-01T01:54:54;3.75;;;1.98;;
65150;SDS011;51918;51.856;0.150;2023-04-01T01:59:58;4.55;;;2.47;;
65150;SDS011;51918;51.856;0.150;2023-04-01T02:05:01;4.60;;;2.38;;
65150;SDS011;51918;51.856;0.150;2023-04-01T02:10:06;4.68;;;2.53;;
65150;SDS011;51918;51.856;0.150;2023-04-01T02:15:08;6.35;;;2.50;;
65150;SDS011;51918;51.856;0.150;2023-04-01T02:20:13;6.10;;;3.10;;
65150;SDS011;51918;51.856;0.150;2023-04-01T02:25:17;7.10;;;3.05;;
65150;SDS011;51918;51.856;0.150;2023-04-01T02:30:20;6.70;;;3.20;;
65150;SDS011;51918;51.856;0.150;2023-04-01T02:35:21;5.82;;;2.72;;
65150;SDS011;51918;51.856;0.150;2023-04-01T02:40:23;5.70;;;2.58;;
65150;SDS011;51918;51.856;0.150;2023-04-01T02:45:24;4.05;;;1.60;;
65150;SDS011;51918;51.856;0.150;2023-04-01T02:50:25;6.07;;;1.65;;
65150;SDS011;51918;51.856;0.150;2023-04-01T02:55:27;4.03;;;1.52;;
65150;SDS011;51918;51.856;0.150;2023-04-01T03:00:28;3.70;;;1.73;;
65150;SDS011;51918;51.856;0.150;2023-04-01T03:05:28;2.92;;;1.52;;
65150;SDS011;51918;51.856;0.150;2023-04-01T03:10:30;3.63;;;1.60;;
65150;SDS011;51918;51.856;0.150;2023-04-01T03:15:31;3.65;;;1.50;;
65150;SDS011;51918;51.856;0.150;2023-04-01T03:20:32;4.22;;;1.80;;
65150;SDS011;51918;51.856;0.150;2023-04-01T03:25:34;4.15;;;1.90;;
65150;SDS011;51918;51.856;0.150;2023-04-01T03:30:34;4.88;;;2.22;;
65150;SDS011;51918;51.856;0.150;2023-04-01T03:35:35;4.13;;;2.17;;
65150;SDS011;51918;51.856;0.150;2023-04-01T03:40:37;3.97;;;1.83;;
65150;SDS011;51918;51.856;0.150;2023-04-01T03:45:43;6.43;;;2.25;;
65150;SDS011;51918;51.856;0.150;2023-04-01T03:50:44;4.97;;;2.50;;
65150;SDS011;51918;51.856;0.150;2023-04-01T03:55:46;4.85;;;2.58;;
65150;SDS011;51918;51.856;0.150;2023-04-01T04:00:47;5.80;;;2.80;;
65150;SDS011;51918;51.856;0.150;2023-04-01T04:05:47;7.07;;;2.38;;
65150;SDS011;51918;51.856;0.150;2023-04-01T04:10:55;7.00;;;2.25;;
65150;SDS011;51918;51.856;0.150;2023-04-01T04:15:56;5.78;;;2.30;;
65150;SDS011;51918;51.856;0.150;2023-04-01T04:20:56;6.72;;;2.25;;
65150;SDS011;51918;51.856;0.150;2023-04-01T04:26:00;7.68;;;2.35;;
65150;SDS011;51918;51.856;0.150;2023-04-01T04:31:02;5.30;;;2.33;;
65150;SDS011;51918;51.856;0.150;2023-04-01T04:36:04;5.53;;;2.42;;
65150;SDS011;51918;51.856;0.150;2023-04-01T04:41:09;7.63;;;3.15;;
65150;SDS011;51918;51.856;0.150;2023-04-01T04:46:10;5.78;;;2.33;;
65150;SDS011;51918;51.856;0.150;2023-04-01T04:51:12;6.43;;;2.78;;
65150;SDS011;51918;51.856;0.150;2023-04-01T04:56:18;6.60;;;2.70;;
65150;SDS011;51918;51.856;0.150;2023-04-01T05:01:19;6.00;;;2.85;;
65150;SDS011;51918;51.856;0.150;2023-04-01T05:06:20;7.50;;;2.90;;
65150;SDS011;51918;51.856;0.150;2023-04-01T05:11:22;7.55;;;3.00;;
65150;SDS011;51918;51.856;0.150;2023-04-01T05:16:23;9.45;;;3.75;;
65150;SDS011;51918;51.856;0.150;2023-04-01T05:21:23;6.13;;;2.65;;
65150;SDS011;51918;51.856;0.150;2023-04-01T05:26:26;7.13;;;3.10;;
65150;SDS011;51918;51.856;0.150;2023-04-01T05:36:27;6.22;;;2.33;;
65150;SDS011;51918;51.856;0.150;2023-04-01T05:41:29;4.10;;;2.00;;
65150;SDS011;51918;51.856;0.150;2023-04-01T05:46:30;6.22;;;2.10;;
65150;SDS011;51918;51.856;0.150;2023-04-01T05:51:30;6.45;;;2.97;;
65150;SDS011;51918;51.856;0.150;2023-04-01T05:56:32;6.38;;;2.70;;
65150;SDS011;51918;51.856;0.150;2023-04-01T06:06:34;6.95;;;3.40;;
65150;SDS011;51918;51.856;0.150;2023-04-01T06:11:38;6.35;;;3.05;;
65150;SDS011;51918;51.856;0.150;2023-04-01T06:16:54;8.20;;;3.42;;
65150;SDS011;51918;51.856;0.150;2023-04-01T06:27:39;10.30;;;4.50;;
65150;SDS011;51918;51.856;0.150;2023-04-01T06:38:29;12.00;;;5.35;;
65150;SDS011;51918;51.856;0.150;2023-04-01T06:43:45;12.55;;;5.47;;
65150;SDS011;51918;51.856;0.150;2023-04-01T06:48:57;13.60;;;5.70;;
65150;SDS011;51918;51.856;0.150;2023-04-01T06:54:07;13.82;;;5.22;;
65150;SDS011;51918;51.856;0.150;2023-04-01T06:59:13;12.52;;;5.30;;
65150;SDS011;51918;51.856;0.150;2023-04-01T07:04:18;14.85;;;5.40;;
65150;SDS011;51918;51.856;0.150;2023-04-01T07:09:24;15.57;;;5.95;;
65150;SDS011;51918;51.856;0.150;2023-04-01T07:14:30;15.07;;;5.90;;
65150;SDS011;51918;51.856;0.150;2023-04-01T07:19:34;17.58;;;6.40;;
65150;SDS011;51918;51.856;0.150;2023-04-01T07:24:42;16.33;;;5.90;;
65150;SDS011;51918;51.856;0.150;2023-04-01T07:29:46;11.27;;;5.55;;
65150;SDS011;51918;51.856;0.150;2023-04-01T07:34:51;11.25;;;5.15;;
